createdAt,value
2023-02-15T05:47:12.170Z,26.03
2023-02-15T05:55:43.160Z,31.65
2023-02-15T05:59:28.638Z,38.63
2023-02-15T06:02:27.185Z,35.90
2023-02-15T06:05:41.437Z,35.58
2023-02-15T06:13:29.804Z,33.90
2023-02-15T06:16:50.186Z,34.70
2023-02-15T06:19:39.781Z,32.65
2023-02-15T06:22:29.388Z,33.33
2023-02-15T06:25:18.670Z,27.90
2023-02-15T06:28:08.567Z,26.20
2023-02-15T06:30:57.953Z,28.27
2023-02-15T06:33:47.423Z,27.48
2023-02-15T06:36:37.037Z,25.17
2023-02-15T06:39:26.430Z,25.70
2023-02-15T06:42:15.822Z,21.15
2023-02-15T06:45:07.612Z,21.23
2023-02-15T06:47:57.826Z,21.85
2023-02-15T06:50:47.128Z,24.38
2023-02-15T06:53:37.612Z,24.60
2023-02-15T06:56:26.882Z,27.90
2023-02-15T06:59:16.108Z,21.50
2023-02-15T07:02:05.685Z,21.52
2023-02-15T07:04:55.019Z,25.33
2023-02-15T07:07:44.511Z,23.27
2023-02-15T07:10:33.956Z,17.52
2023-02-15T07:13:23.589Z,16.17
2023-02-15T07:16:12.969Z,17.42
2023-02-15T07:19:02.668Z,19.52
2023-02-15T07:21:51.968Z,17.77
2023-02-15T07:24:41.435Z,14.95
2023-02-15T07:27:30.608Z,15.73
2023-02-15T07:30:20.127Z,15.45
2023-02-15T07:33:24.781Z,18.55
2023-02-15T07:36:14.136Z,17.85
2023-02-15T07:39:03.585Z,19.33
2023-02-15T07:41:53.065Z,22.75
2023-02-15T07:44:42.419Z,21.27
2023-02-15T07:47:31.988Z,20.80
2023-02-15T07:50:21.348Z,24.92
2023-02-15T07:53:10.703Z,28.27
2023-02-15T07:56:08.179Z,34.42
2023-02-15T07:58:59.840Z,32.50
2023-02-15T08:01:48.987Z,33.28
2023-02-15T08:04:38.529Z,32.00
2023-02-15T08:07:27.951Z,27.00
2023-02-15T08:10:37.060Z,24.73
2023-02-15T08:13:26.528Z,21.17
2023-02-15T08:16:16.074Z,20.52
2023-02-15T08:19:11.108Z,23.42
2023-02-15T08:22:06.578Z,23.35
2023-02-15T08:25:01.906Z,23.23
2023-02-15T08:27:53.092Z,22.27
2023-02-15T08:30:42.523Z,21.75
2023-02-15T08:33:31.975Z,26.25
2023-02-15T08:36:23.693Z,23.95
2023-02-15T08:39:14.144Z,22.77
2023-02-15T08:42:03.925Z,20.05
2023-02-15T08:44:53.615Z,17.63
2023-02-15T08:47:42.949Z,17.83
2023-02-15T08:50:32.418Z,15.93
2023-02-15T08:53:23.572Z,16.05
2023-02-15T08:56:14.361Z,11.65
2023-02-15T08:59:28.787Z,12.23
2023-02-15T09:02:18.157Z,12.52
2023-02-15T09:05:07.718Z,14.18
2023-02-15T09:07:57.071Z,15.45
2023-02-15T09:10:46.572Z,12.68
2023-02-15T09:13:36.540Z,13.82
2023-02-15T09:16:28.584Z,10.13
2023-02-15T09:19:19.946Z,9.57
2023-02-15T09:22:09.306Z,11.07
2023-02-15T09:25:01.301Z,10.32
2023-02-15T09:27:50.705Z,8.33
2023-02-15T09:30:40.848Z,9.32
2023-02-15T09:33:30.348Z,8.98
2023-02-15T09:36:25.246Z,11.52
2023-02-15T09:39:18.280Z,12.02
2023-02-15T09:42:43.499Z,11.73
2023-02-15T09:45:49.150Z,11.13
2023-02-15T09:48:41.566Z,9.23
2023-02-15T09:51:28.748Z,10.25
2023-02-15T09:54:15.586Z,11.50
2023-02-15T09:56:57.794Z,8.85
2023-02-15T09:59:57.915Z,8.48
2023-02-15T10:02:44.508Z,12.00
2023-02-15T10:05:51.961Z,9.73
2023-02-15T10:08:35.820Z,14.05
2023-02-15T10:11:35.231Z,12.88
2023-02-15T10:14:23.929Z,11.75
2023-02-15T10:17:11.172Z,13.20
2023-02-15T10:19:46.418Z,11.48
2023-02-15T10:22:42.989Z,11.45
2023-02-15T10:25:42.731Z,11.15
2023-02-15T10:28:43.808Z,12.43
2023-02-15T10:31:23.925Z,11.05
2023-02-15T10:34:17.092Z,12.38
2023-02-15T10:37:26.058Z,12.23
2023-02-15T10:40:25.652Z,11.18
2023-02-15T10:43:00.297Z,10.70
2023-02-15T10:45:55.117Z,9.63
2023-02-15T10:48:27.078Z,10.32
2023-02-15T10:51:06.141Z,10.82
2023-02-15T10:53:52.879Z,10.93
2023-02-15T10:56:24.657Z,10.15
2023-02-15T10:59:23.704Z,13.13
2023-02-15T11:02:16.654Z,11.38
2023-02-15T11:05:10.712Z,10.77
2023-02-15T11:07:46.542Z,10.32
2023-02-15T11:10:30.981Z,12.63
2023-02-15T11:13:05.602Z,11.82
2023-02-15T11:15:59.372Z,12.65
2023-02-15T11:18:38.792Z,12.43
2023-02-15T11:22:13.033Z,12.98
2023-02-15T11:24:46.066Z,11.93
2023-02-15T11:27:20.769Z,11.13
2023-02-15T11:29:49.763Z,14.25
2023-02-15T11:32:39.595Z,12.13
2023-02-15T11:35:23.380Z,12.38
2023-02-15T11:38:10.211Z,10.77
2023-02-15T11:40:51.359Z,10.43
2023-02-15T11:43:28.923Z,10.90
2023-02-15T11:45:58.396Z,13.38
2023-02-15T11:48:27.484Z,11.07
2023-02-15T11:50:56.555Z,11.90
2023-02-15T11:53:29.851Z,16.10
2023-02-15T11:55:58.962Z,13.77
2023-02-15T11:58:51.568Z,13.38
2023-02-15T12:04:24.025Z,12.25
2023-02-15T12:07:09.743Z,14.05
2023-02-15T12:09:54.256Z,15.35
2023-02-15T12:12:25.963Z,15.77
2023-02-15T12:14:57.399Z,19.23
2023-02-15T12:17:31.015Z,18.83
2023-02-15T12:20:19.760Z,19.25
2023-02-15T12:23:14.450Z,17.65
2023-02-15T12:25:57.700Z,17.20
2023-02-15T12:28:38.969Z,18.08
2023-02-15T12:31:23.310Z,21.00
2023-02-15T12:33:55.925Z,18.52
2023-02-15T12:39:16.263Z,19.75
2023-02-15T12:42:10.040Z,19.70
2023-02-15T12:44:39.393Z,21.15
2023-02-15T12:47:12.900Z,21.15
2023-02-15T12:50:18.857Z,22.77
2023-02-15T12:52:53.377Z,23.02
2023-02-15T12:55:29.129Z,28.08
2023-02-15T12:58:19.608Z,31.38
2023-02-15T13:00:49.486Z,31.67
2023-02-15T13:03:22.053Z,34.88
2023-02-15T13:05:55.782Z,35.17
2023-02-15T13:08:33.139Z,35.17
2023-02-15T13:11:14.170Z,42.33
2023-02-15T13:14:05.318Z,38.50
2023-02-15T13:16:40.220Z,33.80
2023-02-15T13:19:35.357Z,37.25
2023-02-15T13:22:30.206Z,37.13
2023-02-15T13:25:03.967Z,35.78
2023-02-15T13:27:42.225Z,36.70
2023-02-15T13:30:29.130Z,38.58
2023-02-15T13:33:02.615Z,39.20
2023-02-15T13:35:46.885Z,37.92
2023-02-15T13:38:53.760Z,36.95
2023-02-15T13:41:35.593Z,39.28
2023-02-15T13:47:21.643Z,36.58
2023-02-15T13:50:13.145Z,36.63
2023-02-15T13:52:59.657Z,33.13
2023-02-15T13:56:03.287Z,33.20
2023-02-15T13:58:53.559Z,30.75
2023-02-15T14:01:42.344Z,33.42
2023-02-15T14:04:28.356Z,34.92
2023-02-15T14:07:47.759Z,32.85
2023-02-15T14:10:36.334Z,32.00
2023-02-15T14:13:26.542Z,31.90
2023-02-15T14:16:12.833Z,31.52
2023-02-15T14:18:46.908Z,35.25
2023-02-15T14:21:27.734Z,34.78
2023-02-15T14:24:14.978Z,34.28
2023-02-15T14:27:15.690Z,31.63
2023-02-15T14:29:59.943Z,29.58
2023-02-15T14:33:13.139Z,30.67
2023-02-15T14:35:44.683Z,27.85
2023-02-15T14:38:29.141Z,27.88
2023-02-15T14:41:26.023Z,30.00
2023-02-15T14:44:10.903Z,29.58
2023-02-15T14:47:03.268Z,30.48
2023-02-15T14:49:39.295Z,30.13
2023-02-15T14:52:10.352Z,29.38
2023-02-15T14:54:39.417Z,32.50
2023-02-15T14:57:08.221Z,35.40
2023-02-15T15:00:00.589Z,36.60
2023-02-15T15:02:49.559Z,35.00
2023-02-15T15:05:48.107Z,35.10
2023-02-15T15:08:43.440Z,35.55
2023-02-15T15:11:52.357Z,34.97
2023-02-15T15:14:42.653Z,37.20
2023-02-15T15:17:39.854Z,39.53
2023-02-15T15:20:36.251Z,40.33
2023-02-15T15:23:17.265Z,41.47
2023-02-15T15:25:47.671Z,42.15
2023-02-15T15:28:34.968Z,41.92
2023-02-15T15:31:51.643Z,43.20
2023-02-15T15:34:44.645Z,42.20
2023-02-15T15:37:44.098Z,42.08
2023-02-15T15:40:45.286Z,42.70
2023-02-15T15:43:38.180Z,42.50
2023-02-15T15:48:44.462Z,40.25
2023-02-15T15:51:21.634Z,42.33
2023-02-15T15:53:55.314Z,41.67
2023-02-15T15:56:34.474Z,41.85
2023-02-15T16:00:03.700Z,43.78
2023-02-15T16:02:53.247Z,39.97
2023-02-15T16:05:22.903Z,41.72
2023-02-15T16:07:52.753Z,43.42
2023-02-15T16:10:27.889Z,44.10
2023-02-15T16:12:58.174Z,43.97
2023-02-15T16:15:38.573Z,44.28
2023-02-15T16:18:07.977Z,45.70
2023-02-15T16:20:39.156Z,43.67
2023-02-15T16:23:30.967Z,42.72
2023-02-15T16:26:38.617Z,46.22
2023-02-15T16:29:29.246Z,46.83
2023-02-15T16:32:21.636Z,44.83
2023-02-15T16:35:07.122Z,46.67
2023-02-15T16:37:39.017Z,46.47
2023-02-15T16:40:09.646Z,43.08
2023-02-15T16:42:39.536Z,43.97
2023-02-15T16:45:17.439Z,44.05
2023-02-15T16:47:52.895Z,43.50
2023-02-15T16:50:37.016Z,45.28
2023-02-15T16:53:11.563Z,45.00
2023-02-15T16:55:44.633Z,47.15
2023-02-15T16:58:20.223Z,47.00
2023-02-15T17:00:50.346Z,45.97
2023-02-15T17:03:27.052Z,47.17
2023-02-15T17:06:02.538Z,45.85
2023-02-15T17:08:46.324Z,48.63
2023-02-15T17:11:21.408Z,45.00
2023-02-15T17:14:10.977Z,46.95
2023-02-15T17:16:55.642Z,44.83
2023-02-15T17:19:35.120Z,45.95
2023-02-15T17:22:08.469Z,47.28
2023-02-15T17:24:43.594Z,44.88
2023-02-15T17:27:25.801Z,45.35
2023-02-15T17:30:00.689Z,56.53
2023-02-15T17:32:34.048Z,101.53
2023-02-15T17:35:23.052Z,64.35
2023-02-15T17:38:02.070Z,57.47
2023-02-15T17:40:36.829Z,56.47
2023-02-15T17:43:05.882Z,49.90
2023-02-15T17:45:38.679Z,46.95
2023-02-15T17:48:08.636Z,48.83
2023-02-15T17:50:38.181Z,62.13
2023-02-15T17:53:10.575Z,65.10
2023-02-15T17:55:43.967Z,65.47
2023-02-15T17:58:15.789Z,82.38
2023-02-15T18:01:06.538Z,86.22
2023-02-15T18:04:02.564Z,93.68
2023-02-15T18:06:50.359Z,67.75
2023-02-15T18:09:40.197Z,65.78
2023-02-15T18:12:33.363Z,63.03
2023-02-15T18:15:02.678Z,61.35
2023-02-15T18:17:36.973Z,63.60
2023-02-15T18:20:16.674Z,56.20
2023-02-15T18:22:47.445Z,52.35
2023-02-15T18:25:18.984Z,54.33
2023-02-15T18:27:48.087Z,55.88
2023-02-15T18:30:19.618Z,62.65
2023-02-15T18:32:52.369Z,105.47
2023-02-15T18:35:24.148Z,137.27
2023-02-15T18:37:54.752Z,100.07
2023-02-15T18:40:28.327Z,74.18
2023-02-15T18:42:58.342Z,64.78
2023-02-15T18:45:33.505Z,61.83
2023-02-15T18:48:02.626Z,59.35
2023-02-15T18:50:35.950Z,59.15
2023-02-15T18:53:07.531Z,58.58
2023-02-15T18:55:37.334Z,54.13
2023-02-15T18:58:06.234Z,57.15
2023-02-15T19:00:36.712Z,58.05
2023-02-15T19:03:07.568Z,59.90
2023-02-15T19:05:39.961Z,52.03
2023-02-15T19:08:19.930Z,49.72
2023-02-15T19:10:49.632Z,46.85
2023-02-15T19:13:19.868Z,47.35
2023-02-15T19:15:50.165Z,54.08
2023-02-15T19:18:20.624Z,48.75
2023-02-15T19:20:50.560Z,50.10
2023-02-15T19:23:25.736Z,47.95
2023-02-15T19:25:55.794Z,46.67
2023-02-15T19:28:33.796Z,50.58
2023-02-15T19:31:02.883Z,49.80
2023-02-15T19:33:31.876Z,47.67
2023-02-15T19:36:01.168Z,47.15
2023-02-15T19:38:36.510Z,45.05
2023-02-15T19:41:10.449Z,48.22
2023-02-15T19:43:39.730Z,45.95
2023-02-15T19:46:09.041Z,47.67
2023-02-15T19:48:38.100Z,48.00
2023-02-15T19:51:06.974Z,49.28
2023-02-15T19:53:36.142Z,50.17
2023-02-15T19:56:05.347Z,52.13
2023-02-15T19:58:35.048Z,50.28
2023-02-15T20:01:05.514Z,53.88
2023-02-15T20:03:35.352Z,54.95
2023-02-15T20:06:04.261Z,146.70
2023-02-15T20:08:33.881Z,251.35
2023-02-15T20:11:02.885Z,114.93
2023-02-15T20:13:32.074Z,78.40
2023-02-15T20:16:06.769Z,62.92
2023-02-15T20:18:36.513Z,58.03
2023-02-15T20:21:07.241Z,55.28
2023-02-15T20:23:38.117Z,56.25
2023-02-15T20:26:19.379Z,53.65
2023-02-15T20:28:49.439Z,53.45
2023-02-15T20:31:21.325Z,52.55
2023-02-15T20:33:50.832Z,55.50
2023-02-15T20:36:21.907Z,55.92
2023-02-15T20:38:50.984Z,52.17
2023-02-15T20:41:38.397Z,53.38
2023-02-15T20:44:20.787Z,53.30
2023-02-15T20:46:51.495Z,53.58
2023-02-15T20:49:20.528Z,52.85
2023-02-15T20:51:49.665Z,57.58
2023-02-15T20:54:21.732Z,55.38
2023-02-15T20:56:51.227Z,54.85
2023-02-15T20:59:29.010Z,57.70
2023-02-15T21:02:16.617Z,55.65
2023-02-15T21:04:45.747Z,56.95
2023-02-15T21:07:22.829Z,56.80
2023-02-15T21:09:53.346Z,59.95
2023-02-15T21:12:23.086Z,64.53
2023-02-15T21:14:51.872Z,60.60
2023-02-15T21:17:20.585Z,68.43
2023-02-15T21:19:49.518Z,66.63
2023-02-15T21:22:18.347Z,68.95
2023-02-15T21:24:52.376Z,72.13
2023-02-15T21:27:21.245Z,71.13
2023-02-15T21:29:50.103Z,70.80
2023-02-15T21:32:19.838Z,72.63
2023-02-15T21:34:48.604Z,73.80
2023-02-15T21:37:34.550Z,78.75
2023-02-15T21:40:07.797Z,80.25
2023-02-15T21:42:55.461Z,82.75
2023-02-15T21:45:42.847Z,78.07
2023-02-15T21:48:12.024Z,83.05
2023-02-15T21:50:59.559Z,81.65
2023-02-15T21:53:37.527Z,84.00
2023-02-15T21:56:07.922Z,87.93
2023-02-15T21:58:38.146Z,85.72
2023-02-15T22:01:08.140Z,88.72
2023-02-15T22:03:40.583Z,88.22
2023-02-15T22:08:42.195Z,86.80
2023-02-15T22:11:18.659Z,96.25
2023-02-15T22:13:48.742Z,101.80
2023-02-15T22:16:23.372Z,107.80
2023-02-15T22:18:52.436Z,108.63
2023-02-15T22:21:21.777Z,111.78
2023-02-15T22:23:50.821Z,114.20
2023-02-15T22:26:25.494Z,121.38
2023-02-15T22:28:54.505Z,118.82
2023-02-15T22:31:24.715Z,124.38
2023-02-15T22:33:55.899Z,121.78
2023-02-15T22:36:27.432Z,125.07
2023-02-15T22:38:58.236Z,121.03
2023-02-15T22:41:31.118Z,121.65
2023-02-15T22:44:01.080Z,122.30
2023-02-15T22:46:30.078Z,123.50
2023-02-15T22:48:59.144Z,129.15
2023-02-15T22:51:27.916Z,122.70
2023-02-15T22:53:56.990Z,127.07
2023-02-15T22:56:45.555Z,131.57
2023-02-15T22:59:22.070Z,129.88
2023-02-15T23:01:51.410Z,135.40
2023-02-15T23:04:23.662Z,137.77
2023-02-15T23:06:54.360Z,137.45
2023-02-15T23:09:23.648Z,137.60
2023-02-15T23:11:54.123Z,144.18
2023-02-15T23:14:35.657Z,143.77
2023-02-15T23:17:04.801Z,136.45
2023-02-15T23:19:33.651Z,146.98
2023-02-15T23:22:02.796Z,148.75
2023-02-15T23:24:35.456Z,145.70
2023-02-15T23:27:22.846Z,142.70
2023-02-15T23:29:52.690Z,144.48
2023-02-15T23:32:22.960Z,145.23
2023-02-15T23:34:51.849Z,148.18
2023-02-15T23:37:20.566Z,149.77
2023-02-15T23:40:07.477Z,146.25
2023-02-15T23:42:37.164Z,146.25
2023-02-15T23:45:24.128Z,150.27
2023-02-15T23:48:12.499Z,146.70
2023-02-15T23:50:41.637Z,142.35
2023-02-15T23:53:11.522Z,147.90
2023-02-15T23:55:44.555Z,156.25
2023-02-15T23:58:19.624Z,155.57
